Time;durP1;ratioP1;P1;durP2;ratioP2;P2;SDS_P1;SDS_P2;PMS_P1;PMS_P2;Temp;Humidity;BMP_temperature;BMP_pressure;BME280_temperature;BME280_humidity;BME280_pressure;Samples;Min_cycle;Max_cycle;Signal;HPM_P1;HPM_P2
2022/04/21 00:02:04;;;;;;;13.70;9.30;;;;;;;4.42;80.28;99156.54;25085;1315;3051895;-67
2022/04/21 00:04:33;;;;;;;12.40;8.60;;;;;;;5.06;78.62;99154.92;25115;1318;3026474;-66
2022/04/21 00:07:02;;;;;;;13.30;7.60;;;;;;;5.26;77.07;99157.86;25146;1315;3026902;-67
2022/04/21 00:09:32;;;;;;;8.50;5.80;;;;;;;5.21;76.97;99160.36;25092;1315;3054200;-66
2022/04/21 00:12:21;;;;;;;10.50;7.00;;;;;;;4.96;77.70;99164.04;25027;1318;3055539;-67
2022/04/21 00:15:10;;;;;;;11.20;6.20;;;;;;;4.80;78.49;99166.95;25063;1315;3049982;-67
2022/04/21 00:17:40;;;;;;;14.90;7.40;;;;;;;4.53;79.56;99167.52;25120;1315;3026607;-68
2022/04/21 00:20:09;;;;;;;9.10;5.40;;;;;;;4.43;80.48;99167.59;25125;1315;3026844;-67
2022/04/21 00:25:29;;;;;;;9.80;5.90;;;;;;;5.25;77.98;99159.98;25146;1315;3053350;-68
2022/04/21 00:27:59;;;;;;;10.50;6.40;;;;;;;5.07;77.87;99160.10;25115;1315;3026522;-66
2022/04/21 00:32:55;;;;;;;8.90;5.90;;;;;;;4.81;79.18;99166.75;31578;1319;3026053;-68
2022/04/21 00:35:24;;;;;;;12.90;7.70;;;;;;;4.68;79.72;99172.65;25014;1322;3026735;-66
2022/04/21 00:37:54;;;;;;;10.80;6.60;;;;;;;4.77;79.43;99173.15;25060;1319;3027047;-68
2022/04/21 00:40:26;;;;;;;10.10;5.50;;;;;;;4.99;78.89;99168.08;25047;1319;3047700;-68
2022/04/21 00:43:15;;;;;;;10.00;6.80;;;;;;;5.21;77.82;99169.22;24993;1320;3051458;-68
2022/04/21 00:45:47;;;;;;;12.50;7.50;;;;;;;4.93;78.83;99178.05;24966;1318;3239050;-65
2022/04/21 00:48:16;;;;;;;18.40;9.00;;;;;;;4.93;78.89;99179.27;25139;1316;3026549;-67
2022/04/21 00:50:45;;;;;;;18.10;9.10;;;;;;;4.86;79.36;99171.22;25138;1316;3028616;-67
2022/04/21 00:53:14;;;;;;;11.60;7.60;;;;;;;4.81;79.37;99169.19;25156;1315;3054910;-65
2022/04/21 00:55:43;;;;;;;13.50;7.10;;;;;;;4.67;80.10;99164.39;25120;1316;3026926;-67
2022/04/21 00:58:12;;;;;;;12.80;6.60;;;;;;;5.01;79.18;99166.61;25168;1315;3051992;-66
2022/04/21 01:00:42;;;;;;;13.10;7.10;;;;;;;5.40;77.77;99158.64;25156;1316;3026793;-67
2022/04/21 01:03:14;;;;;;;16.10;8.50;;;;;;;5.23;77.76;99165.66;25160;1316;3026561;-67
2022/04/21 01:05:44;;;;;;;15.70;8.70;;;;;;;4.95;78.97;99162.16;25142;1315;3026552;-67
2022/04/21 01:08:13;;;;;;;18.10;10.50;;;;;;;4.91;79.29;99157.81;25150;1315;3026120;-65
2022/04/21 01:10:43;;;;;;;16.70;9.80;;;;;;;4.71;80.09;99158.84;25108;1315;3026651;-68
2022/04/21 01:13:12;;;;;;;19.40;9.90;;;;;;;4.44;81.05;99160.43;25164;1316;3026840;-67
2022/04/21 01:15:45;;;;;;;18.20;8.80;;;;;;;4.46;81.66;99159.85;25128;1316;3026108;-68
2022/04/21 01:18:14;;;;;;;16.80;8.30;;;;;;;4.88;80.52;99160.04;25175;1316;3029673;-68
2022/04/21 01:21:03;;;;;;;15.50;9.30;;;;;;;5.30;78.72;99152.52;25132;1316;3071464;-68
2022/04/21 01:23:32;;;;;;;16.90;10.00;;;;;;;5.36;78.16;99153.48;25127;1316;3026790;-67
2022/04/21 01:26:21;;;;;;;18.30;11.30;;;;;;;4.99;79.07;99156.95;25115;1315;3050693;-68
2022/04/21 01:28:50;;;;;;;20.90;11.20;;;;;;;4.75;80.24;99157.79;25120;1316;3028367;-66
2022/04/21 01:31:39;;;;;;;19.20;11.50;;;;;;;4.63;80.84;99155.02;25093;1315;3052310;-68
2022/04/21 01:34:09;;;;;;;12.50;8.30;;;;;;;4.58;80.99;99160.59;25135;1315;3027371;-68
2022/04/21 01:41:08;;;;;;;14.10;8.60;;;;;;;4.87;80.59;99157.80;25147;1316;3026882;-68
2022/04/21 01:42:15;;;;;;;12.10;8.20;;;;;;;5.03;79.14;99155.73;25101;1316;3050207;-67
2022/04/21 01:44:45;;;;;;;14.90;9.30;;;;;;;4.98;79.36;99157.85;25141;1315;3026082;-66
2022/04/21 01:47:14;;;;;;;13.80;8.50;;;;;;;4.86;79.66;99165.33;25119;1316;3027186;-68
2022/04/21 01:49:43;;;;;;;13.50;9.60;;;;;;;4.75;80.33;99169.62;25123;1315;3026946;-67
2022/04/21 01:52:12;;;;;;;8.80;5.60;;;;;;;4.65;80.85;99177.80;25140;1316;3052507;-68
2022/04/21 01:55:02;;;;;;;10.90;6.60;;;;;;;5.39;79.01;99171.89;25164;1316;3050791;-67
2022/04/21 01:57:32;;;;;;;11.20;7.00;;;;;;;5.48;77.87;99173.24;25129;1316;3026774;-66
2022/04/21 02:00:01;;;;;;;11.20;7.20;;;;;;;5.50;77.92;99173.02;25098;1315;3026824;-66
2022/04/21 02:02:30;;;;;;;12.50;7.60;;;;;;;5.30;78.46;99173.85;25147;1316;3052700;-66
2022/04/21 02:05:03;;;;;;;13.80;8.40;;;;;;;4.96;80.03;99181.76;25126;1316;3027193;-67
2022/04/21 02:07:32;;;;;;;22.40;10.90;;;;;;;4.98;80.43;99185.30;25170;1316;3026915;-67
2022/04/21 02:10:24;;;;;;;16.30;9.90;;;;;;;4.89;80.67;99186.55;25126;1316;3054887;-66
2022/04/21 02:12:53;;;;;;;12.40;7.60;;;;;;;5.45;79.49;99184.31;25106;1315;3026714;-67
2022/04/21 02:15:42;;;;;;;13.20;7.60;;;;;;;5.80;77.35;99181.02;25186;1316;3055441;-69
2022/04/21 02:18:11;;;;;;;13.30;7.60;;;;;;;5.75;77.16;99180.91;25104;1316;3029215;-68
2022/04/21 02:20:40;;;;;;;11.40;7.40;;;;;;;5.57;77.80;99183.81;25169;1318;3052419;-67
2022/04/21 02:23:08;;;;;;;16.10;7.60;;;;;;;5.15;79.34;99189.95;25131;1316;3026310;-66
2022/04/21 02:25:37;;;;;;;11.60;7.60;;;;;;;5.17;79.82;99192.00;25367;1316;3056048;-66
2022/04/21 02:28:08;;;;;;;12.40;5.90;;;;;;;5.06;80.41;99191.58;25772;1315;3026908;-67
2022/04/21 02:30:38;;;;;;;8.70;5.50;;;;;;;5.59;79.00;99187.34;25756;1316;3026694;-65
2022/04/21 02:33:08;;;;;;;8.70;5.70;;;;;;;6.08;76.89;99179.61;25462;1316;3027100;-65
2022/04/21 02:35:37;;;;;;;9.70;5.70;;;;;;;6.02;76.42;99183.52;25105;1316;3027094;-67
2022/04/21 02:38:07;;;;;;;10.20;6.00;;;;;;;5.92;77.00;99185.54;25131;1316;3058703;-68
2022/04/21 02:40:56;;;;;;;9.60;6.50;;;;;;;5.92;76.65;99188.34;25137;1316;3052577;-68
2022/04/21 02:43:25;;;;;;;11.40;6.30;;;;;;;5.73;77.18;99188.29;25155;1316;3026174;-66
2022/04/21 02:45:56;;;;;;;12.30;6.80;;;;;;;5.44;78.19;99191.34;25145;1314;3026366;-67
2022/04/21 02:48:25;;;;;;;8.60;5.10;;;;;;;5.15;79.64;99190.85;25187;1316;3028347;-68
2022/04/21 02:50:56;;;;;;;11.40;6.20;;;;;;;5.74;78.69;99185.14;25182;1315;3053482;-67
2022/04/21 02:59:21;;;;;;;11.20;6.60;;;;;;;6.11;75.70;99180.53;25102;1316;3052602;-67
2022/04/21 03:01:50;;;;;;;12.20;6.90;;;;;;;5.79;76.83;99188.92;25166;1316;3026708;-64
2022/04/21 03:04:20;;;;;;;10.80;7.30;;;;;;;5.82;76.95;99185.84;25089;1319;3049357;-66
2022/04/21 03:06:49;;;;;;;14.90;8.30;;;;;;;5.76;77.26;99190.42;25114;1319;3026830;-66
2022/04/21 03:09:18;;;;;;;9.00;6.60;;;;;;;5.66;77.50;99191.55;25090;1315;3026526;-65
2022/04/21 03:11:48;;;;;;;14.90;6.70;;;;;;;6.25;76.20;99186.64;25127;1315;3053420;-66
2022/04/21 03:14:19;;;;;;;11.90;6.70;;;;;;;6.54;74.52;99185.77;25175;1316;3028078;-66
2022/04/21 03:17:08;;;;;;;14.20;8.20;;;;;;;6.69;73.77;99188.73;25147;1315;3050227;-66
2022/04/21 03:19:39;;;;;;;14.80;7.60;;;;;;;6.38;74.42;99189.52;25116;1316;3026269;-69
2022/04/21 03:25:00;;;;;;;15.70;9.00;;;;;;;5.94;76.10;99189.25;25149;1316;3052020;-68
2022/04/21 03:27:50;;;;;;;13.50;8.70;;;;;;;5.62;76.93;99194.02;25164;1315;3052579;-67
2022/04/21 03:30:20;;;;;;;14.50;7.80;;;;;;;5.52;77.29;99190.09;25189;1316;3026542;-68
2022/04/21 03:32:50;;;;;;;13.00;7.00;;;;;;;5.93;76.67;99184.80;25127;1316;3026492;-66
2022/04/21 03:35:21;;;;;;;12.00;7.50;;;;;;;6.44;74.83;99175.68;25156;1315;3027344;-67
2022/04/21 03:37:49;;;;;;;11.30;7.50;;;;;;;6.31;74.44;99182.17;25166;1316;3028831;-67
2022/04/21 03:40:19;;;;;;;15.30;8.60;;;;;;;6.21;74.71;99193.44;25181;1316;3052978;-66
2022/04/21 03:42:49;;;;;;;13.90;8.40;;;;;;;6.09;75.06;99196.63;25177;1316;3026550;-67
2022/04/21 03:45:18;;;;;;;14.70;8.80;;;;;;;5.98;75.38;99202.85;25192;1315;3029087;-67
2022/04/21 03:47:52;;;;;;;15.60;8.70;;;;;;;5.67;76.57;99204.70;25176;1316;3052382;-68
2022/04/21 03:50:21;;;;;;;14.90;9.40;;;;;;;5.56;77.42;99199.45;25182;1316;3029587;-66
2022/04/21 03:52:49;;;;;;;13.60;7.60;;;;;;;5.43;78.32;99197.81;25175;1316;3054376;-68
2022/04/21 03:55:38;;;;;;;12.90;7.00;;;;;;;6.21;76.26;99195.87;25104;1316;3050750;-67
2022/04/21 03:58:27;;;;;;;10.10;7.00;;;;;;;6.29;75.30;99191.48;25135;1316;3052942;-66
2022/04/21 04:00:56;;;;;;;14.80;8.20;;;;;;;6.24;75.69;99205.13;25120;1315;3026466;-67
2022/04/21 04:03:25;;;;;;;15.20;8.20;;;;;;;6.11;76.18;99206.92;25145;1315;3030061;-68
2022/04/21 04:05:59;;;;;;;15.10;7.70;;;;;;;6.09;76.11;99205.31;25139;1316;3053546;-67
2022/04/21 04:11:17;;;;;;;14.10;8.60;;;;;;;5.76;77.84;99204.34;25118;1316;3069689;-69
2022/04/21 04:13:47;;;;;;;13.20;6.80;;;;;;;5.69;78.44;99203.94;25202;1316;3026381;-69
2022/04/21 04:16:36;;;;;;;9.80;6.40;;;;;;;6.35;77.14;99193.45;25209;1316;3052566;-66
2022/04/21 04:19:08;;;;;;;11.90;6.40;;;;;;;6.68;75.54;99189.48;25172;1316;3026621;-70
2022/04/21 04:21:38;;;;;;;8.60;6.70;;;;;;;6.42;76.13;99188.25;25128;1316;3026453;-66
2022/04/21 04:24:06;;;;;;;10.30;7.20;;;;;;;6.32;76.32;99192.21;25085;1316;3029729;-68
2022/04/21 04:26:55;;;;;;;11.60;7.50;;;;;;;6.01;77.71;99201.64;25130;1316;3052835;-68
2022/04/21 04:29:24;;;;;;;13.70;7.80;;;;;;;5.88;78.43;99204.85;25123;1316;3026499;-69
2022/04/21 04:32:14;;;;;;;15.10;7.60;;;;;;;5.89;78.63;99201.48;25170;1316;3053995;-69
2022/04/21 04:34:44;;;;;;;12.90;5.30;;;;;;;5.79;79.15;99200.88;25150;1316;3026869;-68
2022/04/21 04:37:13;;;;;;;9.90;5.80;;;;;;;6.37;77.84;99194.10;25165;1315;3026753;-68
2022/04/21 04:39:45;;;;;;;10.20;5.50;;;;;;;6.75;75.88;99201.51;25138;1315;3026731;-69
2022/04/21 04:42:17;;;;;;;11.10;6.10;;;;;;;6.71;75.85;99205.14;25174;1316;3026840;-70
2022/04/21 04:47:43;;;;;;;7.40;5.20;;;;;;;6.48;76.74;99209.02;25102;1316;3067954;-68
2022/04/21 04:50:13;;;;;;;7.70;5.40;;;;;;;6.19;77.97;99214.91;25161;1316;3026331;-67
2022/04/21 04:52:43;;;;;;;13.70;6.70;;;;;;;6.25;78.05;99218.80;25137;1314;3027000;-67
2022/04/21 04:55:12;;;;;;;5.60;4.30;;;;;;;6.20;78.48;99229.83;25143;1316;3026788;-66
2022/04/21 04:58:01;;;;;;;8.70;4.90;;;;;;;6.71;77.31;99215.40;25135;1315;3056323;-67
2022/04/21 05:00:30;;;;;;;9.90;4.50;;;;;;;7.30;75.12;99213.70;25136;1315;3026971;-69
2022/04/21 05:02:59;;;;;;;9.80;5.10;;;;;;;7.40;74.25;99210.05;25156;1316;3051888;-68
2022/04/21 05:05:31;;;;;;;10.20;6.30;;;;;;;7.35;74.37;99212.05;25181;1316;3028531;-68
2022/04/21 05:08:05;;;;;;;11.10;6.60;;;;;;;7.12;75.07;99216.38;25127;1316;3027047;-68
2022/04/21 05:10:34;;;;;;;19.00;8.10;;;;;;;6.97;75.46;99217.48;25158;1316;3054868;-68
2022/04/21 05:13:03;;;;;;;18.60;8.20;;;;;;;6.77;76.91;99221.94;25155;1315;3028441;-66
2022/04/21 05:15:52;;;;;;;13.80;6.90;;;;;;;6.79;76.60;99220.41;25120;1316;3051799;-69
2022/04/21 05:18:22;;;;;;;20.90;8.90;;;;;;;7.23;75.52;99218.41;25191;1316;3028451;-69
2022/04/21 05:21:11;;;;;;;19.00;9.50;;;;;;;7.68;73.85;99223.27;25116;1315;3051495;-69
2022/04/21 05:23:55;;;;;;;22.90;12.10;;;;;;;7.74;73.62;99222.25;25183;1316;3071294;-70
2022/04/21 05:26:24;;;;;;;;;;;;;;;7.69;73.64;99219.75;25143;1315;3049101;-70
2022/04/21 05:28:54;;;;;;;22.10;11.60;;;;;;;7.40;73.95;99219.86;25215;1314;3026836;-69
2022/04/21 05:31:25;;;;;;;24.00;12.90;;;;;;;7.38;74.50;99220.81;25190;1314;3027020;-70
2022/04/21 05:33:59;;;;;;;25.30;11.70;;;;;;;7.31;74.82;99219.93;25152;1314;3059406;-69
2022/04/21 05:36:28;;;;;;;21.40;12.50;;;;;;;7.40;73.96;99224.33;25145;1316;3026276;-70
2022/04/21 05:38:58;;;;;;;15.70;8.50;;;;;;;7.17;74.94;99231.63;25158;1313;3054727;-70
2022/04/21 05:41:27;;;;;;;12.50;6.30;;;;;;;7.64;74.09;99229.07;25117;1315;3026712;-70
2022/04/21 05:43:56;;;;;;;11.10;7.50;;;;;;;7.94;72.58;99229.95;25151;1315;3026588;-69
2022/04/21 05:46:54;;;;;;;12.40;6.40;;;;;;;7.89;72.18;99229.14;25161;1315;3055664;-69
2022/04/21 05:49:24;;;;;;;12.20;7.00;;;;;;;7.90;72.28;99227.34;25200;1316;3026433;-67
2022/04/21 05:51:55;;;;;;;11.20;7.40;;;;;;;8.20;71.89;99228.02;25152;1313;3026644;-69
2022/04/21 05:54:24;;;;;;;12.40;7.90;;;;;;;8.08;72.00;99225.33;25125;1315;3027024;-70
2022/04/21 05:56:58;;;;;;;10.40;7.90;;;;;;;7.70;73.05;99228.05;25180;1313;3053023;-70
2022/04/21 05:59:26;;;;;;;11.40;7.90;;;;;;;7.48;73.58;99231.96;25219;1315;3027798;-69
2022/04/21 06:01:55;;;;;;;11.70;8.30;;;;;;;7.30;74.22;99232.89;25161;1315;3052560;-69
2022/04/21 06:04:24;;;;;;;8.20;6.10;;;;;;;7.36;74.03;99237.48;25179;1315;3027452;-68
2022/04/21 06:06:55;;;;;;;11.20;5.80;;;;;;;7.67;73.08;99239.35;25218;1316;3052963;-68
2022/04/21 06:09:24;;;;;;;11.60;7.40;;;;;;;8.18;71.68;99233.00;25200;1316;3026138;-68
2022/04/21 06:12:13;;;;;;;10.00;6.50;;;;;;;8.53;70.10;99235.66;25173;1315;3056502;-71
2022/04/21 06:14:45;;;;;;;10.30;7.00;;;;;;;8.31;70.14;99238.71;25186;1316;3026941;-70
2022/04/21 06:17:13;;;;;;;13.60;8.00;;;;;;;8.27;70.06;99239.50;25212;1314;3028807;-71
2022/04/21 06:20:02;;;;;;;12.10;8.10;;;;;;;7.96;71.05;99242.03;25181;1316;3051505;-71
2022/04/21 06:22:32;;;;;;;14.40;8.80;;;;;;;8.02;71.22;99246.79;25166;1315;3026375;-69
2022/04/21 06:25:21;;;;;;;10.10;7.90;;;;;;;7.89;71.85;99249.33;25147;1316;3048540;-70
2022/04/21 06:27:52;;;;;;;12.80;8.10;;;;;;;7.64;72.21;99251.15;25206;1313;3029106;-68
2022/04/21 06:30:40;;;;;;;10.60;8.00;;;;;;;7.75;71.86;99246.08;25168;1315;3067658;-72
2022/04/21 06:33:10;;;;;;;12.90;9.10;;;;;;;7.83;71.21;99242.54;25137;1315;3026796;-70
2022/04/21 06:35:42;;;;;;;10.70;5.90;;;;;;;8.03;70.94;99248.78;25218;1316;3026812;-68
2022/04/21 06:38:14;;;;;;;9.30;5.20;;;;;;;8.79;68.88;99242.92;25129;1315;3026306;-69
2022/04/21 06:40:45;;;;;;;9.20;6.00;;;;;;;9.13;67.02;99235.88;25172;1316;3048167;-69
2022/04/21 06:49:13;;;;;;;17.90;9.40;;;;;;;8.73;67.10;99243.23;25135;1315;3056791;-70
2022/04/21 06:51:44;;;;;;;13.40;9.80;;;;;;;8.68;66.91;99247.89;25211;1316;3026408;-70
2022/04/21 06:54:13;;;;;;;17.40;8.00;;;;;;;8.67;67.00;99247.63;25200;1316;3026619;-71
2022/04/21 06:56:48;;;;;;;14.70;8.60;;;;;;;8.79;66.00;99254.42;25182;1316;3027425;-72
2022/04/21 06:59:17;;;;;;;17.50;9.90;;;;;;;8.29;67.80;99263.64;25811;1315;3066984;-71
2022/04/21 07:01:46;;;;;;;18.00;9.30;;;;;;;8.38;67.42;99258.46;25946;1313;3026504;-68
2022/04/21 07:04:22;;;;;;;15.00;9.30;;;;;;;8.41;67.40;99262.64;25970;1313;3051655;-72
2022/04/21 07:06:51;;;;;;;14.30;9.10;;;;;;;8.42;67.72;99265.56;25297;1315;3028060;-72
2022/04/21 07:09:21;;;;;;;13.20;8.50;;;;;;;8.42;66.85;99261.73;25175;1316;3026659;-69
2022/04/21 07:11:52;;;;;;;16.80;9.10;;;;;;;8.40;66.83;99262.87;25137;1318;3027821;-71
2022/04/21 07:14:21;;;;;;;14.90;8.20;;;;;;;8.56;66.70;99258.67;25162;1316;3026517;-74
2022/04/21 07:16:51;;;;;;;14.60;8.60;;;;;;;8.56;66.54;99256.77;25190;1316;3027585;-71
2022/04/21 07:19:39;;;;;;;16.50;8.50;;;;;;;8.65;65.96;99254.16;25140;1315;3050523;-72
2022/04/21 07:22:10;;;;;;;11.60;7.50;;;;;;;8.65;65.08;99255.05;25161;1315;3026585;-72
2022/04/21 07:25:02;;;;;;;20.00;7.40;;;;;;;8.55;65.60;99253.86;25135;1316;3051447;-71
2022/04/21 07:27:51;;;;;;;9.50;6.70;;;;;;;8.52;65.31;99252.10;25124;1316;3067524;-70
2022/04/21 07:30:39;;;;;;;11.70;6.50;;;;;;;8.39;64.14;99255.74;25146;1316;3051429;-69
2022/04/21 07:33:10;;;;;;;15.30;6.90;;;;;;;8.54;64.89;99250.95;25152;1316;3026242;-71
2022/04/21 07:35:43;;;;;;;9.70;6.30;;;;;;;8.88;64.52;99242.06;25115;1316;3028194;-71
2022/04/21 07:38:12;;;;;;;9.50;6.50;;;;;;;8.95;63.81;99241.48;25116;1316;3027834;-68
2022/04/21 07:40:44;;;;;;;11.90;6.80;;;;;;;9.08;63.22;99237.09;25167;1314;3028910;-72
2022/04/21 07:43:13;;;;;;;9.80;6.20;;;;;;;9.00;63.11;99241.40;25161;1315;3026480;-71
2022/04/21 07:45:44;;;;;;;12.20;5.90;;;;;;;8.95;63.52;99238.35;25196;1315;3026573;-70
2022/04/21 07:48:13;;;;;;;14.70;6.60;;;;;;;9.17;62.75;99241.80;25155;1315;3050330;-72
2022/04/21 07:50:45;;;;;;;11.10;6.20;;;;;;;9.13;62.62;99239.95;25144;1315;3027059;-71
2022/04/21 07:53:14;;;;;;;13.10;6.10;;;;;;;9.34;62.33;99235.59;25192;1316;3026999;-71
2022/04/21 07:55:47;;;;;;;15.60;6.60;;;;;;;9.33;62.35;99239.98;25152;1316;3052779;-70
2022/04/21 07:58:29;;;;;;;16.00;6.20;;;;;;;9.39;62.55;99232.30;25167;1315;3055217;-70
2022/04/21 08:00:59;;;;;;;9.80;6.60;;;;;;;9.35;62.44;99237.08;25138;1316;3026395;-70
2022/04/21 08:03:48;;;;;;;9.00;6.30;;;;;;;9.46;62.40;99234.34;25150;1316;3068882;-71
2022/04/21 08:06:18;;;;;;;12.10;5.70;;;;;;;9.71;61.82;99233.18;25158;1314;3026996;-70
2022/04/21 08:08:51;;;;;;;13.40;6.80;;;;;;;9.68;61.92;99235.30;25122;1315;3026894;-73
2022/04/21 08:11:21;;;;;;;9.70;6.00;;;;;;;9.72;61.94;99233.49;25157;1315;3026634;-69
2022/04/21 08:13:55;;;;;;;7.60;5.80;;;;;;;9.90;61.35;99232.69;25145;1316;3048266;-71
2022/04/21 08:16:44;;;;;;;11.10;5.70;;;;;;;9.64;60.50;99236.55;25162;1316;3052937;-70
2022/04/21 08:19:33;;;;;;;10.30;5.80;;;;;;;9.61;60.11;99233.63;25097;1315;3051903;-69
2022/04/21 08:22:02;;;;;;;10.80;6.10;;;;;;;9.59;60.44;99237.08;25135;1315;3026865;-71
2022/04/21 08:33:24;;;;;;;10.10;5.50;;;;;;;9.50;59.47;99236.33;25141;1315;3050379;-71
2022/04/21 08:35:58;;;;;;;9.90;4.20;;;;;;;9.41;59.88;99238.48;25129;1314;3027237;-73
2022/04/21 08:38:48;;;;;;;6.00;4.50;;;;;;;9.37;59.52;99231.70;25085;1315;3059028;-71
2022/04/21 08:41:18;;;;;;;7.70;4.60;;;;;;;9.48;58.81;99239.47;25149;1316;3026731;-71
2022/04/21 08:43:47;;;;;;;7.60;3.90;;;;;;;9.38;59.04;99241.63;25125;1316;3026961;-70
2022/04/21 08:46:18;;;;;;;7.40;4.50;;;;;;;9.41;58.64;99238.30;25148;1315;3026342;-70
2022/04/21 08:48:47;;;;;;;5.80;4.00;;;;;;;9.62;58.68;99235.14;25126;1316;3049481;-71
2022/04/21 08:51:36;;;;;;;7.80;4.20;;;;;;;9.75;58.41;99233.97;25172;1316;3053122;-71
2022/04/21 08:54:06;;;;;;;9.30;4.00;;;;;;;9.68;58.46;99234.79;25130;1316;3029137;-72
2022/04/21 08:56:55;;;;;;;8.90;5.00;;;;;;;9.53;58.46;99233.73;25099;1316;3049852;-69
2022/04/21 08:59:24;;;;;;;12.30;5.20;;;;;;;9.60;58.68;99231.05;25174;1315;3026867;-75
2022/04/21 09:01:59;;;;;;;6.70;4.40;;;;;;;9.46;59.01;99233.79;25203;1315;3058463;-70
2022/04/21 09:04:31;;;;;;;6.40;3.80;;;;;;;9.51;58.53;99234.38;25119;1316;3029498;-71
2022/04/21 09:07:13;;;;;;;6.40;3.80;;;;;;;9.46;58.47;99232.61;25138;1315;3026438;-71
2022/04/21 09:10:01;;;;;;;7.30;3.90;;;;;;;9.39;58.19;99228.12;25139;1315;3053950;-71
2022/04/21 09:12:36;;;;;;;5.80;3.90;;;;;;;9.44;58.20;99223.43;25131;1315;3071456;-71
2022/04/21 09:15:07;;;;;;;6.30;3.70;;;;;;;9.65;58.55;99225.65;25149;1316;3026197;-70
2022/04/21 09:17:58;;;;;;;6.30;3.80;;;;;;;9.78;58.04;99220.86;25131;1315;3053555;-69
2022/04/21 09:20:36;;;;;;;6.00;4.00;;;;;;;9.89;57.90;99224.59;25133;1316;3026565;-69
2022/04/21 09:23:32;;;;;;;6.10;3.60;;;;;;;9.92;57.09;99219.84;25153;1315;3056306;-71
2022/04/21 09:26:12;;;;;;;8.40;4.10;;;;;;;10.11;56.93;99217.64;25128;1315;3050099;-68
2022/04/21 09:29:01;;;;;;;8.80;3.90;;;;;;;9.93;56.71;99218.54;25471;1315;3053800;-69
2022/04/21 09:31:31;;;;;;;7.60;3.40;;;;;;;9.78;57.49;99224.20;25080;1315;3026017;-70
2022/04/21 09:34:19;;;;;;;8.10;3.50;;;;;;;9.80;57.98;99223.75;25115;1315;3071240;-69
2022/04/21 09:36:50;;;;;;;6.40;3.60;;;;;;;9.76;57.67;99223.80;25147;1315;3026961;-70
2022/04/21 09:39:19;;;;;;;5.80;3.80;;;;;;;9.73;57.79;99224.14;25189;1316;3026536;-68
2022/04/21 09:41:54;;;;;;;6.40;3.60;;;;;;;9.78;57.62;99222.61;25130;1316;3070495;-72
2022/04/21 09:47:32;;;;;;;5.60;3.60;;;;;;;10.17;56.76;99218.07;25137;1316;3051644;-68
2022/04/21 09:50:21;;;;;;;5.40;3.50;;;;;;;10.29;55.68;99217.17;25149;1315;3052553;-69
2022/04/21 09:52:53;;;;;;;5.00;3.30;;;;;;;10.16;54.75;99222.00;25232;1316;3026565;-69
2022/04/21 09:55:27;;;;;;;5.40;3.20;;;;;;;10.14;55.16;99228.98;25194;1315;3026464;-68
2022/04/21 09:58:05;;;;;;;4.60;3.40;;;;;;;10.12;55.81;99222.81;25148;1315;3053251;-69
2022/04/21 10:00:44;;;;;;;5.20;3.00;;;;;;;10.21;55.72;99226.77;25171;1315;3051914;-69
2022/04/21 10:03:13;;;;;;;5.50;3.10;;;;;;;10.25;54.89;99227.39;25214;1315;3026844;-71
2022/04/21 10:05:43;;;;;;;7.30;3.20;;;;;;;10.24;53.39;99226.96;25120;1315;3055534;-71
2022/04/21 10:08:12;;;;;;;6.40;3.90;;;;;;;10.08;54.12;99230.38;25190;1316;3026891;-68
2022/04/21 10:11:01;;;;;;;7.80;3.10;;;;;;;10.32;54.06;99231.91;25145;1315;3049865;-69
2022/04/21 10:13:34;;;;;;;7.30;3.50;;;;;;;10.19;53.95;99230.05;25193;1315;3026549;-70
2022/04/21 10:16:04;;;;;;;7.00;2.90;;;;;;;10.21;53.94;99228.70;25202;1316;3026456;-71
2022/04/21 10:18:34;;;;;;;5.40;3.00;;;;;;;10.27;54.14;99232.70;25143;1316;3026657;-72
2022/04/21 10:21:09;;;;;;;5.00;3.20;;;;;;;10.14;53.57;99233.90;25127;1316;3052079;-72
2022/04/21 10:23:58;;;;;;;5.90;3.20;;;;;;;10.16;53.41;99239.70;25214;1316;3053176;-72
2022/04/21 10:26:40;;;;;;;5.60;3.20;;;;;;;10.22;53.93;99237.90;25076;1316;3026291;-70
2022/04/21 10:29:29;;;;;;;5.50;3.10;;;;;;;10.44;53.93;99238.52;25116;1315;3058752;-70
2022/04/21 10:32:00;;;;;;;5.40;3.40;;;;;;;10.54;53.57;99227.84;25086;1316;3027091;-73
2022/04/21 10:34:46;;;;;;;4.30;2.90;;;;;;;10.69;53.74;99234.30;25186;1316;3055905;-76
2022/04/21 10:37:22;;;;;;;6.10;3.50;;;;;;;10.70;51.79;99230.39;25105;1316;3027071;-72
2022/04/21 10:40:04;;;;;;;7.80;2.90;;;;;;;10.70;52.06;99233.33;25159;1315;3071634;-73
2022/04/21 10:42:54;;;;;;;6.00;3.40;;;;;;;10.66;52.74;99238.66;25106;1315;3051750;-69
2022/04/21 10:45:43;;;;;;;5.80;3.40;;;;;;;10.57;52.43;99236.66;25143;1315;3054149;-72
2022/04/21 10:48:14;;;;;;;5.80;2.90;;;;;;;10.72;51.99;99239.51;25135;1315;3026533;-69
2022/04/21 10:51:01;;;;;;;7.70;3.20;;;;;;;10.85;50.57;99242.88;25183;1316;3058939;-71
2022/04/21 11:07:53;;;;;;;4.10;2.60;;;;;;;11.42;46.48;99232.27;25158;1315;3048743;-69
2022/04/21 11:10:27;;;;;;;6.80;3.30;;;;;;;11.62;46.08;99240.23;25243;1316;3054744;-70
2022/04/21 11:13:19;;;;;;;5.70;2.80;;;;;;;11.34;45.99;99241.77;25144;1315;3055266;-70
2022/04/21 11:15:53;;;;;;;9.00;3.40;;;;;;;11.45;45.93;99239.80;25198;1315;3026696;-70
2022/04/21 11:18:28;;;;;;;8.10;2.70;;;;;;;11.54;45.86;99239.69;25301;1315;3051483;-69
2022/04/21 11:21:28;;;;;;;4.80;2.10;;;;;;;11.48;44.52;99246.63;25677;1315;3055204;-67
2022/04/21 11:24:00;;;;;;;7.20;2.80;;;;;;;11.68;43.43;99240.30;25713;1316;3051775;-67
2022/04/21 11:26:34;;;;;;;;;;;;;;;11.80;43.35;99240.92;25159;1315;3071923;-70
2022/04/21 11:29:03;;;;;;;4.20;2.20;;;;;;;11.80;43.01;99238.80;25121;1316;3030378;-68
2022/04/21 11:31:33;;;;;;;3.90;2.10;;;;;;;11.72;43.47;99247.44;25148;1316;3056276;-67
2022/04/21 11:34:02;;;;;;;4.90;2.20;;;;;;;11.41;42.88;99251.44;25132;1315;3026881;-71
2022/04/21 11:36:54;;;;;;;4.60;2.40;;;;;;;11.29;43.84;99250.30;25074;1316;3056520;-71
2022/04/21 11:39:23;;;;;;;4.10;1.90;;;;;;;11.00;43.51;99248.52;25129;1315;3026407;-72
2022/04/21 11:41:52;;;;;;;4.00;2.00;;;;;;;11.21;43.42;99251.06;25183;1315;3029802;-72
2022/04/21 11:44:22;;;;;;;4.20;2.00;;;;;;;11.38;43.26;99248.88;25119;1316;3054652;-70
2022/04/21 11:46:53;;;;;;;3.60;2.50;;;;;;;11.48;42.63;99248.88;25144;1316;3026809;-69
2022/04/21 11:49:57;;;;;;;4.60;1.90;;;;;;;11.95;42.15;99242.33;25137;1315;3071435;-69
2022/04/21 11:52:29;;;;;;;3.90;1.90;;;;;;;11.79;41.31;99241.67;25115;1316;3051483;-70
2022/04/21 11:55:19;;;;;;;3.50;1.30;;;;;;;11.93;41.62;99242.17;25167;1315;3052453;-72
2022/04/21 11:57:49;;;;;;;2.60;1.50;;;;;;;11.82;40.97;99244.80;25206;1315;3026582;-71
2022/04/21 12:06:27;;;;;;;3.90;1.90;;;;;;;11.72;41.29;99247.95;25204;1315;3026208;-70
2022/04/21 12:08:48;;;;;;;10.20;2.40;;;;;;;12.08;41.11;99246.35;25156;1316;3051976;-70
2022/04/21 12:11:24;;;;;;;4.70;2.20;;;;;;;12.07;41.70;99252.54;25134;1316;3069935;-71
2022/04/21 12:13:56;;;;;;;6.50;2.50;;;;;;;11.96;41.97;99249.50;25148;1315;3026879;-71
2022/04/21 12:16:39;;;;;;;10.10;2.60;;;;;;;12.05;42.03;99247.81;25120;1315;3027157;-70
2022/04/21 12:19:17;;;;;;;6.40;2.60;;;;;;;12.13;41.56;99247.45;25173;1316;3070834;-72
2022/04/21 12:22:09;;;;;;;8.40;2.50;;;;;;;12.22;41.97;99243.65;25104;1315;3049291;-72
2022/04/21 12:24:57;;;;;;;7.20;2.40;;;;;;;12.18;42.64;99246.03;25136;1316;3052476;-70
2022/04/21 12:27:36;;;;;;;5.00;2.50;;;;;;;12.02;43.54;99246.23;25147;1315;3026662;-69
2022/04/21 12:30:25;;;;;;;;;;;;;;;12.17;44.24;99243.48;25124;1316;3056431;-72
2022/04/21 12:32:55;;;;;;;6.20;2.70;;;;;;;12.20;45.10;99244.14;25063;1315;3026750;-74
2022/04/21 12:35:50;;;;;;;6.60;2.50;;;;;;;12.32;45.16;99257.84;25119;1315;3029923;-70
2022/04/21 12:41:06;;;;;;;5.70;2.50;;;;;;;12.56;45.72;99257.23;25119;1315;3071498;-72
2022/04/21 12:43:56;;;;;;;4.40;1.90;;;;;;;12.59;46.18;99258.77;25023;1316;3049198;-69
2022/04/21 12:46:27;;;;;;;3.80;2.00;;;;;;;12.58;46.73;99258.97;24840;1316;3431739;-70
2022/04/21 12:48:59;;;;;;;10.90;2.20;;;;;;;12.50;46.66;99258.30;25142;1315;3054200;-70
2022/04/21 12:51:32;;;;;;;5.30;2.70;;;;;;;12.74;46.34;99257.11;25168;1315;3026240;-71
2022/04/21 12:54:01;;;;;;;5.40;2.00;;;;;;;12.99;46.16;99258.27;25088;1315;3026749;-71
2022/04/21 12:56:52;;;;;;;3.00;1.80;;;;;;;13.01;45.64;99249.91;25172;1314;3055299;-70
2022/04/21 12:59:22;;;;;;;4.50;1.70;;;;;;;13.17;44.54;99256.65;25155;1316;3028728;-72